Time;durP1;ratioP1;P1;durP2;ratioP2;P2;SDS_P1;SDS_P2;PMS_P1;PMS_P2;Temp;Humidity;BMP_temperature;BMP_pressure;BME280_temperature;BME280_humidity;BME280_pressure;Samples;Min_cycle;Max_cycle;Signal;HPM_P1;HPM_P2
2023/04/05 00:00:35;;;;;;;;;2.00;2.00;;;;;22.22;32.99;102303.31;5078326;28;45346;-75
2023/04/05 00:03:00;;;;;;;;;2.00;2.00;;;;;22.24;33.33;102311.94;5078436;28;45234;-75
2023/04/05 00:05:29;;;;;;;;;3.00;1.50;;;;;22.22;32.93;102305.97;5078017;28;45298;-75
2023/04/05 00:07:56;;;;;;;;;4.75;3.75;;;;;22.24;33.08;102309.28;5077951;28;46877;-75
2023/04/05 00:10:21;;;;;;;;;3.00;3.00;;;;;22.24;33.17;102300.50;5078117;28;45359;-75
2023/04/05 00:12:46;;;;;;;;;3.50;2.00;;;;;22.24;32.84;102297.84;5077909;28;45407;-74
2023/04/05 00:15:12;;;;;;;;;4.25;3.00;;;;;22.24;32.86;102297.84;5078209;28;45376;-75
2023/04/05 00:17:37;;;;;;;;;4.00;4.00;;;;;22.24;32.89;102303.16;5078059;28;46026;-75
2023/04/05 00:20:06;;;;;;;;;2.00;2.00;;;;;22.24;32.73;102305.81;5077594;28;45378;-74
2023/04/05 00:22:34;;;;;;;;;2.50;2.50;;;;;22.22;33.35;102298.00;5078111;28;45303;-75
2023/04/05 00:25:00;;;;;;;;;4.75;4.00;;;;;22.21;33.15;102298.13;5077919;28;45522;-75
2023/04/05 00:27:26;;;;;;;;;3.50;3.50;;;;;22.21;33.23;102298.13;5077651;28;46081;-75
2023/04/05 00:29:51;;;;;;;;;3.75;2.75;;;;;22.21;32.90;102295.47;5077674;28;45343;-74
2023/04/05 00:32:16;;;;;;;;;1.50;1.50;;;;;22.20;33.36;102293.84;5077643;28;45412;-75
2023/04/05 00:34:42;;;;;;;;;2.75;2.75;;;;;22.22;32.88;102291.88;5077566;28;45663;-75
2023/04/05 00:37:07;;;;;;;;;2.00;2.00;;;;;22.21;32.98;102292.84;5077314;28;46798;-75
2023/04/05 00:39:32;;;;;;;;;2.75;2.75;;;;;22.20;33.04;102284.03;5077494;28;48172;-76
2023/04/05 00:41:57;;;;;;;;;2.25;2.25;;;;;22.20;32.97;102275.28;5077730;28;45945;-75
2023/04/05 00:44:23;;;;;;;;;4.50;3.00;;;;;22.20;33.26;102264.66;5059407;28;45539;-75
2023/04/05 00:46:48;;;;;;;;;2.00;2.00;;;;;22.13;33.23;102259.09;5058167;28;47843;-75
2023/04/05 00:49:14;;;;;;;;;4.00;3.00;;;;;22.20;33.29;102262.84;5077044;28;45506;-75
2023/04/05 00:51:40;;;;;;;;;3.50;3.00;;;;;22.18;33.27;102259.50;5077725;28;45414;-75
2023/04/05 00:54:07;;;;;;;;;3.25;3.00;;;;;22.18;32.84;102259.50;5077458;28;45306;-75
2023/04/05 00:56:33;;;;;;;;;3.00;3.00;;;;;22.16;32.88;102254.34;5077173;28;46102;-75
2023/04/05 00:58:59;;;;;;;;;3.50;3.00;;;;;22.17;33.12;102257.84;5077233;28;45362;-75
2023/04/05 01:01:26;;;;;;;;;2.00;2.00;;;;;22.18;32.96;102260.34;5077372;28;45512;-76
2023/04/05 01:03:59;;;;;;;;;5.75;2.00;;;;;22.17;33.30;102261.31;5077012;28;45387;-75
2023/04/05 01:06:52;;;;;;;;;2.00;2.00;;;;;22.16;32.67;102250.88;5077125;28;47187;-75
2023/04/05 01:09:32;;;;;;;;;2.00;2.00;;;;;22.16;32.88;102253.50;5076502;28;45395;-75
2023/04/05 01:12:01;;;;;;;;;3.25;2.25;;;;;22.14;32.65;102245.72;5077338;28;45298;-75
2023/04/05 01:14:27;;;;;;;;;5.50;3.75;;;;;22.13;32.60;102241.38;5077026;28;45873;-76
2023/04/05 01:16:56;;;;;;;;;4.00;4.00;;;;;22.13;32.83;102249.34;5076889;28;46299;-75
2023/04/05 01:19:25;;;;;;;;;3.25;3.25;;;;;22.13;32.99;102237.91;5076690;28;45403;-75
2023/04/05 01:22:12;;;;;;;;;3.50;3.25;;;;;22.11;32.99;102234.56;5077085;28;45294;-76
2023/04/05 01:25:27;;;;;;;;;5.00;4.50;;;;;22.01;33.12;102221.38;5077128;28;45294;-75
2023/04/05 01:28:11;;;;;;;;;3.00;3.00;;;;;22.11;32.60;102243.34;5076856;28;46653;-75
2023/04/05 01:30:43;;;;;;;;;3.00;3.00;;;;;22.11;32.94;102239.88;5076877;28;45214;-75
2023/04/05 01:33:46;;;;;;;;;2.25;2.25;;;;;22.11;32.79;102238.06;5076536;28;45514;-76
2023/04/05 01:36:18;;;;;;;;;3.00;3.00;;;;;22.12;33.22;102230.94;5063176;28;45481;-75
2023/04/05 01:38:47;;;;;;;;;2.75;2.25;;;;;22.13;32.85;102237.91;5076835;28;47143;-76
2023/04/05 01:41:13;;;;;;;;;0.75;0.75;;;;;22.04;32.61;102219.25;5078140;28;45396;-75
2023/04/05 01:43:39;;;;;;;;;3.50;3.50;;;;;22.12;32.64;102231.75;5076828;28;45437;-75
2023/04/05 01:46:05;;;;;;;;;3.00;3.00;;;;;22.06;32.79;102214.66;5076647;28;45367;-75
2023/04/05 01:48:30;;;;;;;;;1.50;1.50;;;;;22.07;32.77;102218.09;5076398;28;45417;-75
2023/04/05 01:50:55;;;;;;;;;2.50;2.50;;;;;22.13;32.67;102237.91;5076590;28;45403;-76
2023/04/05 01:53:20;;;;;;;;;3.00;3.00;;;;;22.12;33.27;102229.09;5075715;28;45265;-75
2023/04/05 01:55:46;;;;;;;;;3.50;3.00;;;;;22.13;32.68;102227.28;5076635;28;45359;-75
2023/04/05 01:58:11;;;;;;;;;2.67;2.67;;;;;22.13;33.16;102233.44;5075966;28;50111;-75
2023/04/05 02:00:36;;;;;;;;;4.50;4.00;;;;;22.12;32.64;102223.00;5076373;28;45394;-75
2023/04/05 02:03:02;;;;;;;;;4.75;3.25;;;;;22.12;32.87;102217.69;5077210;28;45427;-75
2023/04/05 02:05:27;;;;;;;;;3.00;3.00;;;;;22.12;32.68;102223.81;5076448;28;45339;-75
2023/04/05 02:07:52;;;;;;;;;1.50;1.50;;;;;22.11;32.70;102219.50;5076380;28;45759;-76
2023/04/05 02:10:18;;;;;;;;;3.00;3.00;;;;;22.12;33.16;102229.09;5076390;28;45312;-75
2023/04/05 02:12:44;;;;;;;;;1.50;1.50;;;;;22.05;32.75;102217.44;5076403;28;45356;-76
2023/04/05 02:15:09;;;;;;;;;5.00;2.00;;;;;22.10;33.02;102224.94;5076256;28;45337;-75
2023/04/05 02:17:38;;;;;;;;;4.00;3.50;;;;;22.01;32.68;102213.41;5075637;28;47406;-76
2023/04/05 02:20:08;;;;;;;;;4.50;4.50;;;;;22.08;32.57;102219.78;5076239;28;45334;-75
2023/04/05 02:22:33;;;;;;;;;2.50;2.50;;;;;22.10;33.01;102216.97;5076150;28;45326;-75
2023/04/05 02:25:00;;;;;;;;;3.00;3.00;;;;;22.08;33.06;102211.84;5076109;28;45348;-75
2023/04/05 02:27:25;;;;;;;;;3.00;3.00;;;;;22.03;33.03;102204.34;5075973;28;46364;-76
2023/04/05 02:29:51;;;;;;;;;4.00;4.00;;;;;22.08;33.03;102206.53;5076031;28;45421;-76
2023/04/05 02:32:17;;;;;;;;;4.50;4.00;;;;;22.06;33.03;102214.66;5075497;28;45470;-75
2023/04/05 02:34:42;;;;;;;;;3.00;2.00;;;;;22.07;32.95;102213.66;5075913;28;45371;-76
2023/04/05 02:37:07;;;;;;;;;2.75;2.50;;;;;22.06;32.93;102204.03;5075423;28;51828;-75
2023/04/05 02:39:33;;;;;;;;;4.75;4.25;;;;;22.05;32.44;102209.47;5075735;28;45383;-76
2023/04/05 02:41:58;;;;;;;;;4.00;2.75;;;;;21.99;32.52;102195.00;5076089;28;45367;-76
2023/04/05 02:44:24;;;;;;;;;3.00;3.00;;;;;22.03;32.89;102198.19;5075908;28;45333;-75
2023/04/05 02:46:50;;;;;;;;;2.00;2.00;;;;;21.96;32.69;102190.81;5074206;28;45459;-75
2023/04/05 02:49:15;;;;;;;;;2.00;1.00;;;;;22.00;32.15;102195.84;5074853;28;45362;-76
2023/04/05 02:51:40;;;;;;;;;5.00;4.00;;;;;22.01;32.90;102202.81;5075831;28;45439;-76
2023/04/05 02:54:05;;;;;;;;;3.00;3.00;;;;;22.04;32.73;102202.53;5075810;28;45424;-75
2023/04/05 02:56:31;;;;;;;;;4.00;4.00;;;;;22.04;32.73;102191.91;5075568;28;46174;-75
2023/04/05 02:58:56;;;;;;;;;4.00;4.00;;;;;22.03;32.33;102193.72;5075696;28;45411;-76
2023/04/05 03:01:22;;;;;;;;;1.00;1.00;;;;;21.98;32.38;102187.19;5075480;28;45302;-75
2023/04/05 03:03:48;;;;;;;;;3.50;3.00;;;;;21.97;32.53;102181.06;5075722;28;45427;-75
2023/04/05 03:06:13;;;;;;;;;3.50;3.25;;;;;22.04;33.23;102190.09;5075357;28;47159;-75
2023/04/05 03:08:43;;;;;;;;;4.50;3.00;;;;;22.06;33.01;102184.66;5075521;28;45479;-76
2023/04/05 03:11:09;;;;;;;;;2.00;2.00;;;;;22.05;32.73;102181.16;5078973;28;45363;-75
2023/04/05 03:13:35;;;;;;;;;4.00;3.00;;;;;22.05;32.94;102177.66;5079038;28;45371;-75
2023/04/05 03:16:02;;;;;;;;;5.25;2.75;;;;;21.99;32.82;102163.19;5078471;28;46224;-75
2023/04/05 03:18:28;;;;;;;;;5.00;3.75;;;;;22.04;32.52;102168.06;5078853;28;45316;-75
2023/04/05 03:20:58;;;;;;;;;3.00;3.00;;;;;22.05;32.40;102170.56;5078930;28;45511;-76
2023/04/05 03:23:28;;;;;;;;;5.00;3.75;;;;;22.05;32.50;102167.91;5078118;28;45440;-75
2023/04/05 03:25:57;;;;;;;;;4.25;4.00;;;;;22.00;32.66;102162.22;5078709;28;46238;-76
2023/04/05 03:28:23;;;;;;;;;3.00;3.00;;;;;21.96;32.40;102153.72;5078637;28;45510;-75
2023/04/05 03:30:49;;;;;;;;;2.75;2.75;;;;;22.05;32.85;102162.59;5078814;28;45371;-76
2023/04/05 03:33:14;;;;;;;;;4.00;3.00;;;;;22.02;32.83;102165.56;5078702;28;45335;-76
2023/04/05 03:35:39;;;;;;;;;3.00;3.00;;;;;22.03;32.79;102153.97;5078571;28;47676;-76
2023/04/05 03:38:05;;;;;;;;;4.00;3.00;;;;;22.04;32.48;102154.81;5078400;28;45277;-76
2023/04/05 03:40:31;;;;;;;;;3.50;3.50;;;;;22.04;32.88;102154.81;5060542;28;45325;-75
2023/04/05 03:42:56;;;;;;;;;2.75;2.75;;;;;22.03;32.53;102150.50;5078301;28;45332;-76
2023/04/05 03:45:22;;;;;;;;;3.75;3.75;;;;;21.96;32.67;102126.41;5078131;28;45990;-76
2023/04/05 03:47:47;;;;;;;;;2.00;2.00;;;;;22.03;32.23;102143.38;5078537;28;45308;-75
2023/04/05 03:50:13;;;;;;;;;4.25;3.00;;;;;22.05;32.66;102143.22;5078365;28;45316;-76
2023/04/05 03:52:38;;;;;;;;;2.25;2.25;;;;;22.03;32.44;102148.69;5078409;28;45504;-75
2023/04/05 03:55:04;;;;;;;;;4.50;3.00;;;;;22.04;32.27;102142.38;5078417;28;45432;-75
2023/04/05 03:57:30;;;;;;;;;3.00;3.00;;;;;21.95;32.39;102133.53;5077804;28;45508;-75
2023/04/05 03:59:55;;;;;;;;;4.50;3.75;;;;;22.04;32.82;102145.03;5078444;28;45385;-75
2023/04/05 04:02:21;;;;;;;;;4.50;3.50;;;;;22.04;32.75;102141.56;5078295;28;45366;-75
2023/04/05 04:04:46;;;;;;;;;2.50;2.50;;;;;22.01;32.28;102145.34;5078069;28;46098;-76
2023/04/05 04:07:12;;;;;;;;;4.00;4.00;;;;;22.03;32.37;102143.38;5078182;28;45423;-74
2023/04/05 04:09:37;;;;;;;;;4.00;4.00;;;;;22.02;32.23;102147.00;5078403;28;45464;-76
2023/04/05 04:12:03;;;;;;;;;3.50;2.00;;;;;22.00;32.53;102145.47;5077705;28;45417;-76
2023/04/05 04:14:28;;;;;;;;;4.00;3.50;;;;;22.01;32.28;102139.22;5077963;28;47236;-75
2023/04/05 04:16:53;;;;;;;;;2.25;2.25;;;;;22.00;32.10;102140.19;5076657;28;45411;-75
2023/04/05 04:19:19;;;;;;;;;4.00;3.50;;;;;21.98;32.40;102136.84;5078091;28;45391;-75
2023/04/05 04:21:44;;;;;;;;;4.00;4.00;;;;;21.99;32.20;102144.63;5078093;28;45497;-75
2023/04/05 04:24:17;;;;;;;;;4.50;2.50;;;;;21.99;32.55;102149.13;5077601;28;46967;-75
2023/04/05 04:26:43;;;;;;;;;4.00;4.00;;;;;21.98;32.12;102155.41;5060418;28;45372;-75
2023/04/05 04:29:11;;;;;;;;;3.25;3.00;;;;;21.96;32.11;102148.41;5077879;28;45379;-74
2023/04/05 04:31:44;;;;;;;;;3.00;3.00;;;;;21.99;32.48;102157.06;5077576;28;45276;-76
2023/04/05 04:34:11;;;;;;;;;3.00;3.00;;;;;21.92;32.28;102144.41;5076832;28;46418;-73
2023/04/05 04:36:38;;;;;;;;;2.00;2.00;;;;;21.97;32.11;102149.25;5077304;28;45265;-75
2023/04/05 04:39:06;;;;;;;;;3.00;2.75;;;;;21.99;32.76;102155.25;5077544;28;45437;-75
2023/04/05 04:41:32;;;;;;;;;4.50;3.75;;;;;22.00;32.58;102150.78;5077181;28;45331;-75
2023/04/05 04:44:01;;;;;;;;;3.00;2.50;;;;;22.00;32.55;102153.44;5077224;28;46298;-76
2023/04/05 04:46:29;;;;;;;;;7.00;4.00;;;;;21.94;32.27;102153.03;5077498;28;45367;-75
2023/04/05 04:48:58;;;;;;;;;5.00;3.75;;;;;22.00;32.75;102164.88;5077493;28;45352;-78
2023/04/05 04:51:23;;;;;;;;;3.00;3.00;;;;;22.01;32.42;102160.41;5077422;28;45428;-78
2023/04/05 04:53:49;;;;;;;;;4.00;3.00;;;;;22.02;32.71;102159.41;5077393;28;45295;-74
2023/04/05 04:56:14;;;;;;;;;3.75;3.75;;;;;22.03;32.50;102153.13;5076503;28;45363;-74
2023/04/05 04:58:39;;;;;;;;;3.50;3.50;;;;;22.04;32.90;102160.13;5076664;28;45479;-74
2023/04/05 05:01:11;;;;;;;;;0.00;0.00;;;;;22.06;33.02;102158.16;5076679;28;45448;-74
2023/04/05 05:03:37;;;;;;;;;3.25;3.25;;;;;22.02;33.00;102156.75;5077297;28;46994;-76
2023/04/05 05:06:03;;;;;;;;;3.75;3.75;;;;;22.07;32.48;102162.44;5046530;27;46497;-75
2023/04/05 05:08:29;;;;;;;;;3.75;3.00;;;;;22.07;33.10;102155.34;5065799;28;45906;-74
2023/04/05 05:10:55;;;;;;;;;4.00;3.50;;;;;22.07;32.67;102154.50;5071018;28;45581;-75
2023/04/05 05:13:20;;;;;;;;;3.00;3.00;;;;;22.10;33.08;102161.31;5091489;27;45975;-73
2023/04/05 05:15:47;;;;;;;;;5.00;4.50;;;;;22.10;32.63;102161.31;5091870;27;45306;-76
2023/04/05 05:18:12;;;;;;;;;3.25;3.25;;;;;22.10;32.60;102163.97;5091674;27;45427;-76
2023/04/05 05:20:37;;;;;;;;;3.00;2.00;;;;;22.11;32.98;102163.00;5092291;27;45760;-76
2023/04/05 05:23:04;;;;;;;;;3.75;3.00;;;;;22.10;32.65;102169.28;5091870;27;45377;-75
2023/04/05 05:25:30;;;;;;;;;3.00;3.00;;;;;22.11;32.83;102166.50;5072028;27;45724;-75
2023/04/05 05:27:55;;;;;;;;;3.75;3.75;;;;;22.09;33.15;102164.97;5071501;28;45538;-75
2023/04/05 05:30:20;;;;;;;;;5.00;5.00;;;;;22.11;33.06;102173.59;5071269;28;45713;-77
2023/04/05 05:32:47;;;;;;;;;3.00;3.00;;;;;22.12;32.93;102169.97;5069743;28;45529;-75
2023/04/05 05:35:12;;;;;;;;;1.50;1.50;;;;;22.06;32.88;102161.66;5070685;28;46562;-75
2023/04/05 05:37:38;;;;;;;;;3.00;3.00;;;;;22.02;32.48;102152.31;5071432;28;45816;-75
2023/04/05 05:40:04;;;;;;;;;4.00;3.00;;;;;22.09;32.87;102167.63;5076089;28;45395;-76
2023/04/05 05:42:31;;;;;;;;;3.25;3.25;;;;;22.07;32.35;102165.09;5075766;28;46107;-76
2023/04/05 05:44:57;;;;;;;;;5.50;4.75;;;;;22.04;32.18;102171.53;5076378;28;45390;-76
2023/04/05 05:47:22;;;;;;;;;6.50;4.00;;;;;22.01;32.06;102169.19;5076528;28;45347;-75
2023/04/05 05:49:51;;;;;;;;;3.00;3.00;;;;;22.00;32.51;102180.78;5076557;28;45431;-76
2023/04/05 05:52:16;;;;;;;;;3.50;3.50;;;;;22.01;32.00;102182.44;5076252;28;46207;-74
2023/04/05 05:54:41;;;;;;;;;5.00;5.00;;;;;21.91;32.04;102163.94;5076028;28;45332;-75
2023/04/05 05:57:06;;;;;;;;;4.00;4.00;;;;;22.00;32.21;102185.22;5076552;28;45420;-74
2023/04/05 05:59:32;;;;;;;;;4.50;3.25;;;;;22.00;32.50;102185.22;5076487;28;45348;-75
2023/04/05 06:01:57;;;;;;;;;4.00;3.00;;;;;22.00;32.36;102191.38;5076079;28;49472;-75
2023/04/05 06:04:23;;;;;;;;;3.00;3.00;;;;;22.00;32.58;102182.59;5076279;28;45286;-75
2023/04/05 06:06:48;;;;;;;;;3.00;3.00;;;;;22.00;32.59;102182.59;5076266;28;45420;-75
2023/04/05 06:09:14;;;;;;;;;3.25;3.00;;;;;21.99;32.48;102186.22;5075857;28;45458;-75
2023/04/05 06:11:40;;;;;;;;;3.00;3.00;;;;;21.99;32.21;102192.34;5075931;28;46235;-75
2023/04/05 06:14:05;;;;;;;;;4.00;3.50;;;;;22.00;32.60;102190.53;5075973;28;45351;-75
2023/04/05 06:16:30;;;;;;;;;4.75;4.75;;;;;22.01;32.67;102189.56;5076197;28;45261;-76
2023/04/05 06:18:56;;;;;;;;;3.75;3.75;;;;;22.03;32.60;102192.91;5076089;28;45281;-76
2023/04/05 06:21:22;;;;;;;;;4.50;4.00;;;;;22.04;32.64;102192.72;5075910;28;45311;-76
2023/04/05 06:23:47;;;;;;;;;6.25;4.50;;;;;22.05;32.27;102182.97;5075672;28;45289;-75
2023/04/05 06:26:25;;;;;;;;;4.00;4.00;;;;;21.96;32.15;102166.16;5076104;28;45329;-75
2023/04/05 06:28:51;;;;;;;;;1.75;1.75;;;;;22.05;32.65;102182.97;5075757;28;45322;-76
2023/04/05 06:31:41;;;;;;;;;4.00;4.00;;;;;22.11;32.70;102186.84;5075531;28;45344;-75
2023/04/05 06:34:06;;;;;;;;;3.00;2.75;;;;;22.10;32.30;102185.19;5075615;28;45383;-75
2023/04/05 06:36:32;;;;;;;;;3.00;3.00;;;;;22.13;32.67;102184.88;5075249;28;45433;-76
2023/04/05 06:38:58;;;;;;;;;4.50;4.25;;;;;22.12;32.47;102191.19;5075450;28;45690;-75
2023/04/05 06:41:23;;;;;;;;;3.00;3.00;;;;;22.14;32.70;102190.06;5075342;28;46161;-75
2023/04/05 06:43:49;;;;;;;;;2.75;2.75;;;;;22.14;32.61;102190.06;5075808;28;45341;-75
2023/04/05 06:46:14;;;;;;;;;7.25;5.00;;;;;22.16;32.75;102189.91;5079326;28;45411;-76
2023/04/05 06:48:41;;;;;;;;;3.25;3.25;;;;;22.16;32.35;102192.53;5079467;28;45464;-76
2023/04/05 06:51:06;;;;;;;;;3.50;3.00;;;;;22.18;32.23;102187.94;5079135;28;46460;-74
2023/04/05 06:53:31;;;;;;;;;3.00;3.00;;;;;22.17;32.17;102175.66;5078869;28;45517;-75
2023/04/05 06:55:58;;;;;;;;;2.00;2.00;;;;;22.21;32.59;102184.97;5079456;28;45360;-75
2023/04/05 06:58:25;;;;;;;;;3.00;2.25;;;;;22.21;32.53;102186.78;5078503;28;45472;-76
2023/04/05 07:00:51;;;;;;;;;3.00;3.00;;;;;22.22;32.49;102178.72;5078948;28;47251;-76
2023/04/05 07:03:17;;;;;;;;;4.50;4.00;;;;;22.18;32.42;102183.47;5078886;28;45318;-75
2023/04/05 07:05:53;;;;;;;;;4.00;4.00;;;;;22.23;31.93;102177.72;5079250;28;45376;-76
2023/04/05 07:08:20;;;;;;;;;3.50;3.50;;;;;22.25;32.00;102188.19;5079090;28;45603;-75
2023/04/05 07:10:46;;;;;;;;;6.00;4.00;;;;;22.25;31.92;102191.66;5078778;28;46213;-76
2023/04/05 07:13:11;;;;;;;;;4.00;3.50;;;;;22.26;31.94;102182.72;5078932;28;45483;-76
2023/04/05 07:15:37;;;;;;;;;3.50;3.00;;;;;22.25;32.07;102180.22;5078974;28;45443;-76
2023/04/05 07:18:02;;;;;;;;;3.25;3.25;;;;;22.29;32.17;102186.88;5078950;28;45381;-75
2023/04/05 07:20:27;;;;;;;;;3.75;3.25;;;;;22.31;32.27;102192.03;5078594;28;46294;-75
2023/04/05 07:22:53;;;;;;;;;3.75;3.75;;;;;22.28;31.72;102182.56;5078724;28;45351;-75
2023/04/05 07:25:18;;;;;;;;;4.25;4.25;;;;;22.25;32.11;102164.31;5078903;28;45379;-75
2023/04/05 07:27:43;;;;;;;;;3.75;3.75;;;;;22.36;31.83;102181.81;5078833;28;45421;-75
2023/04/05 07:30:09;;;;;;;;;4.00;4.00;;;;;22.39;32.11;102178.88;5078512;28;46079;-75
2023/04/05 07:32:34;;;;;;;;;3.25;3.25;;;;;22.40;31.81;102184.00;5078435;28;45499;-76
2023/04/05 07:35:00;;;;;;;;;4.00;2.25;;;;;22.43;31.65;102184.72;5060309;28;45440;-75
2023/04/05 07:37:26;;;;;;;;;3.25;3.25;;;;;22.44;32.31;102181.91;5078079;28;45455;-75
2023/04/05 07:39:52;;;;;;;;;3.00;3.00;;;;;22.39;32.08;102168.25;5077379;28;47346;-75
2023/04/05 07:42:20;;;;;;;;;3.75;3.75;;;;;22.47;31.79;102181.59;5059367;28;45388;-75
2023/04/05 07:44:45;;;;;;;;;4.00;4.00;;;;;22.47;31.75;102178.94;5076550;28;45380;-75
2023/04/05 07:47:11;;;;;;;;;2.75;2.75;;;;;22.50;31.81;102185.78;5076810;28;45536;-75
2023/04/05 07:49:36;;;;;;;;;4.75;4.25;;;;;22.50;31.95;102176.00;5076849;28;45980;-76
2023/04/05 07:52:02;;;;;;;;;3.50;3.50;;;;;22.54;31.56;102183.63;5076561;28;45362;-74
2023/04/05 07:54:30;;;;;;;;;5.00;3.75;;;;;22.48;32.05;102170.00;5077318;28;45361;-75
2023/04/05 07:56:57;;;;;;;;;2.00;2.00;;;;;22.50;32.20;102162.75;5076853;28;45341;-75
2023/04/05 07:59:22;;;;;;;;;3.25;3.25;;;;;22.50;32.01;102168.06;5076997;28;46938;-75
2023/04/05 08:01:47;;;;;;;;;3.00;3.00;;;;;22.60;31.72;102183.03;5077220;28;45369;-74
2023/04/05 08:04:13;;;;;;;;;3.00;3.00;;;;;22.60;32.27;102169.78;5076557;28;45289;-75
2023/04/05 08:06:38;;;;;;;;;3.00;3.00;;;;;22.62;31.70;102179.25;5077138;28;45285;-75
2023/04/05 08:09:04;;;;;;;;;5.25;3.75;;;;;22.64;31.80;102171.13;5075855;28;45277;-75
2023/04/05 08:11:30;;;;;;;;;3.00;3.00;;;;;22.59;32.15;102157.50;5076818;28;45455;-75
2023/04/05 08:13:56;;;;;;;;;6.25;4.00;;;;;22.67;31.61;102176.16;5076952;28;45895;-75
2023/04/05 08:16:21;;;;;;;;;4.50;4.25;;;;;22.71;31.60;102171.41;5058579;28;45419;-75
2023/04/05 08:18:46;;;;;;;;;5.75;5.75;;;;;22.71;32.09;102163.44;5076278;28;45432;-76
2023/04/05 08:21:12;;;;;;;;;5.00;5.00;;;;;22.74;32.09;102169.25;5076798;28;45371;-75
2023/04/05 08:23:37;;;;;;;;;4.00;4.00;;;;;22.77;31.53;102167.31;5076924;28;45388;-76
2023/04/05 08:26:03;;;;;;;;;4.50;3.50;;;;;22.79;31.45;102168.00;5076691;28;45309;-75
2023/04/05 08:28:28;;;;;;;;;2.75;2.75;;;;;22.80;31.66;102167.81;5076417;28;46171;-75
2023/04/05 08:30:55;;;;;;;;;7.50;3.75;;;;;22.82;31.51;102168.50;5076537;28;45367;-75
2023/04/05 08:33:20;;;;;;;;;3.50;3.50;;;;;22.83;31.70;102170.19;5076114;28;45308;-75
2023/04/05 08:35:46;;;;;;;;;4.00;4.00;;;;;22.77;31.79;102160.16;5076705;28;45481;-75
2023/04/05 08:38:11;;;;;;;;;3.75;3.00;;;;;22.88;31.86;102169.72;5036854;28;1140023;-75
2023/04/05 08:40:41;;;;;;;;;5.00;5.00;;;;;22.90;31.41;102172.22;5077720;28;45393;-75
2023/04/05 08:43:24;;;;;;;;;5.50;4.75;;;;;22.91;31.40;102169.41;5077770;28;45318;-74
2023/04/05 08:45:51;;;;;;;;;3.75;3.75;;;;;22.94;31.92;102165.63;5077380;28;45463;-74
2023/04/05 08:48:18;;;;;;;;;5.25;5.00;;;;;22.96;31.50;102166.28;5077093;28;46453;-74
2023/04/05 08:50:51;;;;;;;;;4.00;4.00;;;;;22.98;31.45;102171.47;5077323;28;45496;-74
2023/04/05 08:53:16;;;;;;;;;3.00;3.00;;;;;22.99;31.77;102159.84;5077382;28;45383;-74
2023/04/05 08:55:42;;;;;;;;;5.00;4.25;;;;;23.01;31.30;102160.50;5077496;28;45412;-74
2023/04/05 08:58:13;;;;;;;;;10.50;4.75;;;;;23.02;31.89;102160.38;5077145;28;45907;-74
2023/04/05 09:00:40;;;;;;;;;6.75;5.50;;;;;23.03;31.57;102156.72;5077305;28;45296;-74
2023/04/05 09:03:10;;;;;;;;;5.00;5.00;;;;;23.05;31.57;102154.75;5076995;28;45413;-74
2023/04/05 09:05:38;;;;;;;;;3.50;3.50;;;;;23.07;31.73;102144.81;5076450;28;45312;-74
2023/04/05 09:08:04;;;;;;;;;3.50;3.50;;;;;23.10;31.57;102148.16;5075985;28;47480;-74
2023/04/05 09:10:30;;;;;;;;;4.25;4.25;;;;;23.11;31.82;102145.31;5077164;28;45411;-75
2023/04/05 09:12:55;;;;;;;;;5.00;5.00;;;;;23.13;31.21;102150.50;5077128;28;45427;-74
2023/04/05 09:15:25;;;;;;;;;7.50;6.00;;;;;23.14;31.47;102144.19;5076683;28;45506;-75
2023/04/05 09:17:52;;;;;;;;;5.00;4.00;;;;;23.12;31.26;102139.03;5076445;28;46434;-74
2023/04/05 09:20:18;;;;;;;;;6.25;5.00;;;;;23.13;31.16;102137.22;5076888;28;45355;-74
2023/04/05 09:22:45;;;;;;;;;6.00;6.00;;;;;23.09;31.61;102131.38;5076919;28;45412;-74
2023/04/05 09:25:31;;;;;;;;;6.75;5.75;;;;;23.08;31.28;102127.06;5076866;28;45355;-75
2023/04/05 09:27:58;;;;;;;;;6.25;5.25;;;;;23.14;31.70;102136.22;5076597;28;47440;-74
2023/04/05 09:30:25;;;;;;;;;5.25;5.00;;;;;23.14;31.83;102133.56;5076785;28;45435;-75
2023/04/05 09:32:51;;;;;;;;;5.25;5.00;;;;;23.15;31.79;102137.88;5076184;28;45328;-74
2023/04/05 09:35:21;;;;;;;;;6.00;6.00;;;;;23.14;31.36;102134.41;5075861;28;45464;-74
2023/04/05 09:37:59;;;;;;;;;5.00;5.00;;;;;23.15;31.23;102132.59;5076295;28;46260;-75
2023/04/05 09:40:44;;;;;;;;;5.25;5.25;;;;;23.16;31.52;102127.09;5076380;28;45351;-74
2023/04/05 09:43:33;;;;;;;;;8.50;5.50;;;;;23.16;31.16;102131.59;5076682;28;45478;-74
2023/04/05 09:45:59;;;;;;;;;4.75;4.75;;;;;23.07;31.56;102118.28;5075847;28;45400;-76
2023/04/05 09:48:44;;;;;;;;;5.25;5.25;;;;;23.16;31.68;102127.09;5076307;28;45353;-74
2023/04/05 09:51:10;;;;;;;;;6.25;5.00;;;;;23.17;31.69;102123.47;5076588;28;45294;-74
2023/04/05 09:53:36;;;;;;;;;6.75;6.50;;;;;23.18;31.41;102117.19;5076337;28;45477;-75
2023/04/05 09:56:09;;;;;;;;;5.75;5.00;;;;;23.14;31.31;102101.69;5076573;28;45455;-74
2023/04/05 09:58:35;;;;;;;;;5.75;5.75;;;;;23.20;31.72;102109.03;5076108;28;46220;-74
2023/04/05 10:01:03;;;;;;;;;5.75;5.00;;;;;23.20;31.80;102106.41;5075920;28;45422;-74
2023/04/05 10:03:29;;;;;;;;;5.25;5.25;;;;;23.20;31.64;102094.94;5076476;28;45372;-75
2023/04/05 10:05:55;;;;;;;;;4.75;4.00;;;;;23.20;31.74;102103.75;5076239;28;45340;-75
2023/04/05 10:08:22;;;;;;;;;5.00;4.25;;;;;23.21;31.28;102100.09;5076194;28;47144;-75
2023/04/05 10:10:52;;;;;;;;;6.75;5.75;;;;;23.13;31.27;102095.59;5076127;28;45328;-75
2023/04/05 10:13:19;;;;;;;;;5.00;5.00;;;;;23.21;31.35;102093.97;5076089;28;45367;-75
2023/04/05 10:15:46;;;;;;;;;6.00;3.50;;;;;23.22;31.72;102100.91;5075830;28;45311;-74
2023/04/05 10:18:20;;;;;;;;;9.50;6.00;;;;;23.22;31.70;102099.09;5075833;28;47182;-74
2023/04/05 10:20:49;;;;;;;;;5.00;5.00;;;;;23.21;31.72;102093.97;5075961;28;45463;-74
2023/04/05 10:23:21;;;;;;;;;4.00;4.00;;;;;23.22;31.33;102100.91;5076167;28;45416;-74
2023/04/05 10:25:52;;;;;;;;;5.75;5.75;;;;;23.22;31.03;102098.25;5076030;28;45429;-75
2023/04/05 10:28:33;;;;;;;;;6.25;5.25;;;;;23.20;31.49;102102.91;5075649;28;46084;-74
2023/04/05 10:31:10;;;;;;;;;7.00;5.50;;;;;23.20;31.63;102097.59;5075371;28;45448;-74
2023/04/05 10:33:42;;;;;;;;;5.75;5.00;;;;;23.18;31.64;102095.94;5075711;28;45494;-74
2023/04/05 10:36:26;;;;;;;;;7.00;5.50;;;;;23.18;31.60;102097.75;5075770;28;45391;-75
2023/04/05 10:39:03;;;;;;;;;7.75;6.25;;;;;23.16;31.65;102095.25;5075597;28;47263;-75
2023/04/05 10:41:34;;;;;;;;;5.00;5.00;;;;;23.15;31.34;102096.25;5075674;28;45312;-75
2023/04/05 10:44:02;;;;;;;;;7.75;6.00;;;;;23.14;31.46;102091.09;5075605;28;45325;-74
2023/04/05 10:46:30;;;;;;;;;4.00;4.00;;;;;23.10;31.49;102089.75;5075773;28;45428;-75
2023/04/05 10:49:07;;;;;;;;;5.25;5.25;;;;;23.11;31.23;102088.75;5075522;28;46389;-74
2023/04/05 10:51:33;;;;;;;;;6.75;6.25;;;;;23.08;31.19;102087.25;5075627;28;45427;-74
2023/04/05 10:53:59;;;;;;;;;5.00;5.00;;;;;23.06;31.42;102082.09;5075728;28;45350;-74
2023/04/05 10:56:25;;;;;;;;;5.00;5.00;;;;;23.00;31.42;102074.78;5075732;28;45390;-75
2023/04/05 10:58:52;;;;;;;;;11.00;6.50;;;;;22.95;31.24;102063.78;5074936;28;47075;-75
2023/04/05 11:01:20;;;;;;;;;8.00;6.00;;;;;23.02;31.46;102075.44;5075600;28;45440;-75
2023/04/05 11:03:53;;;;;;;;;7.25;5.25;;;;;22.92;31.51;102058.78;5075378;28;45353;-75
2023/04/05 11:06:31;;;;;;;;;8.00;5.25;;;;;23.01;31.18;102070.28;5075432;28;45388;-74
2023/04/05 11:09:07;;;;;;;;;5.25;5.25;;;;;23.00;31.85;102066.81;5075264;28;45454;-74
2023/04/05 11:11:41;;;;;;;;;7.25;6.00;;;;;22.99;31.78;102067.78;5075581;28;45467;-74
2023/04/05 11:14:19;;;;;;;;;5.25;4.50;;;;;22.98;31.48;102062.66;5074993;28;45356;-75
2023/04/05 11:16:47;;;;;;;;;6.00;5.75;;;;;22.95;31.98;102056.63;5075205;28;45526;-74
2023/04/05 11:19:15;;;;;;;;;6.50;5.50;;;;;22.96;31.53;102057.47;5075370;28;45403;-75
2023/04/05 11:21:41;;;;;;;;;6.00;6.00;;;;;22.95;31.26;102061.13;5075179;28;45410;-74
2023/04/05 11:24:10;;;;;;;;;4.75;4.75;;;;;22.94;31.45;102048.84;5075459;28;45340;-75
2023/04/05 11:26:38;;;;;;;;;5.50;4.75;;;;;22.92;31.64;102051.66;5074557;28;45362;-75